Time;durP1;ratioP1;P1;durP2;ratioP2;P2;SDS_P1;SDS_P2;PMS_P1;PMS_P2;Temp;Humidity;BMP_temperature;BMP_pressure;BME280_temperature;BME280_humidity;BME280_pressure;Samples;Min_cycle;Max_cycle;Signal;HPM_P1;HPM_P2
2022/06/03 00:00:13;;;;;;;5.30;4.07;;;;;;;;;;5076676;28;20047;-27
2022/06/03 00:02:58;;;;;;;5.00;3.90;;;;;;;;;;5056605;28;20505;-27
2022/06/03 00:05:27;;;;;;;5.75;4.65;;;;;;;;;;5077850;28;20416;-27
2022/06/03 00:07:54;;;;;;;5.75;4.57;;;;;;;;;;5075210;28;20040;-27
2022/06/03 00:10:39;;;;;;;5.25;4.07;;;;;;;;;;5075786;28;20040;-27
2022/06/03 00:13:05;;;;;;;6.65;4.03;;;;;;;;;;5066004;28;20076;-28
2022/06/03 00:15:31;;;;;;;5.22;4.10;;;;;;;;;;5076393;28;20047;-27
2022/06/03 00:18:03;;;;;;;4.75;4.03;;;;;;;;;;5070093;28;20098;-28
2022/06/03 00:20:29;;;;;;;5.22;4.72;;;;;;;;;;5059604;28;20046;-27
2022/06/03 00:23:08;;;;;;;4.95;4.38;;;;;;;;;;5077121;28;20043;-27
2022/06/03 00:25:40;;;;;;;5.05;4.38;;;;;;;;;;5073352;28;20395;-27
2022/06/03 00:28:06;;;;;;;5.57;4.10;;;;;;;;;;5062139;28;20046;-27
2022/06/03 00:30:35;;;;;;;5.30;4.60;;;;;;;;;;5071206;28;20105;-28
2022/06/03 00:33:07;;;;;;;9.43;5.13;;;;;;;;;;5087564;28;20041;-27
2022/06/03 00:35:56;;;;;;;5.65;4.28;;;;;;;;;;5073635;28;20040;-28
2022/06/03 00:38:22;;;;;;;5.72;4.95;;;;;;;;;;5083975;28;20460;-27
2022/06/03 00:40:57;;;;;;;5.63;4.18;;;;;;;;;;5080679;28;20054;-29
2022/06/03 00:43:47;;;;;;;7.35;4.88;;;;;;;;;;5081221;28;20062;-28
2022/06/03 00:46:16;;;;;;;5.90;4.50;;;;;;;;;;5087106;28;20501;-28
2022/06/03 00:49:05;;;;;;;7.07;4.53;;;;;;;;;;5071695;28;20068;-28
2022/06/03 00:51:34;;;;;;;4.78;4.20;;;;;;;;;;5074682;28;20389;-28
2022/06/03 00:54:06;;;;;;;7.85;4.80;;;;;;;;;;5069107;28;20036;-28
2022/06/03 00:56:51;;;;;;;7.53;5.15;;;;;;;;;;5056414;28;20076;-28
2022/06/03 00:59:36;;;;;;;5.75;4.70;;;;;;;;;;5063533;28;20041;-28
2022/06/03 01:02:02;;;;;;;5.32;4.82;;;;;;;;;;5052418;28;20094;-28
2022/06/03 01:04:40;;;;;;;4.60;4.10;;;;;;;;;;5063027;28;20044;-28
2022/06/03 01:07:14;;;;;;;5.72;4.43;;;;;;;;;;5086977;28;20096;-28
2022/06/03 01:09:43;;;;;;;7.68;5.05;;;;;;;;;;5069658;28;20036;-29
2022/06/03 01:12:21;;;;;;;6.80;5.03;;;;;;;;;;5073630;28;20115;-28
2022/06/03 01:14:54;;;;;;;5.10;4.65;;;;;;;;;;5072548;28;20452;-28
2022/06/03 01:17:49;;;;;;;5.55;4.90;;;;;;;;;;5080820;28;20414;-28
2022/06/03 01:20:34;;;;;;;7.57;5.38;;;;;;;;;;5049936;28;20045;-28
2022/06/03 01:23:00;;;;;;;7.93;5.30;;;;;;;;;;5062247;28;20050;-28
2022/06/03 01:25:29;;;;;;;6.13;5.18;;;;;;;;;;5075151;28;20036;-28
2022/06/03 01:27:55;;;;;;;6.30;5.35;;;;;;;;;;5079494;28;20086;-28
2022/06/03 01:30:24;;;;;;;7.13;4.47;;;;;;;;;;5072310;28;20124;-28
2022/06/03 01:33:02;;;;;;;6.25;4.85;;;;;;;;;;5073141;28;20364;-29
2022/06/03 01:35:34;;;;;;;5.75;5.15;;;;;;;;;;5067381;28;20047;-28
2022/06/03 01:38:03;;;;;;;5.95;5.35;;;;;;;;;;5074873;28;20037;-29
2022/06/03 01:40:38;;;;;;;7.43;5.47;;;;;;;;;;5072409;28;20522;-29
2022/06/03 01:43:04;;;;;;;5.60;4.97;;;;;;;;;;5052028;28;20036;-27
2022/06/03 01:45:30;;;;;;;6.93;4.78;;;;;;;;;;5051774;28;20056;-27
2022/06/03 01:47:57;;;;;;;6.65;5.28;;;;;;;;;;5082257;28;20142;-28
2022/06/03 01:50:42;;;;;;;6.93;5.13;;;;;;;;;;5092335;28;20044;-27
2022/06/03 01:53:26;;;;;;;6.15;5.28;;;;;;;;;;5091929;28;20044;-27
2022/06/03 01:56:11;;;;;;;6.18;5.32;;;;;;;;;;5092242;28;20104;-27
2022/06/03 01:58:55;;;;;;;5.20;4.70;;;;;;;;;;5092191;28;20119;-29
2022/06/03 02:01:21;;;;;;;;;;;;;;;;;;5092438;28;20040;-27
2022/06/03 02:04:13;;;;;;;6.30;4.57;;;;;;;;;;5091945;28;20435;-27
2022/06/03 02:06:49;;;;;;;7.18;5.68;;;;;;;;;;5089750;28;20051;-28
2022/06/03 02:09:23;;;;;;;7.55;5.20;;;;;;;;;;5092029;28;20079;-29
2022/06/03 02:12:01;;;;;;;7.05;6.00;;;;;;;;;;5091889;28;20036;-27
2022/06/03 02:14:36;;;;;;;10.98;6.07;;;;;;;;;;5090528;28;20062;-27
2022/06/03 02:17:08;;;;;;;9.43;5.63;;;;;;;;;;5092178;28;20394;-27
2022/06/03 02:19:34;;;;;;;6.15;5.55;;;;;;;;;;5092210;28;20040;-27
2022/06/03 02:22:00;;;;;;;7.82;5.45;;;;;;;;;;5092189;28;20084;-27
2022/06/03 02:24:35;;;;;;;6.35;5.55;;;;;;;;;;5092115;28;20489;-27
2022/06/03 02:27:12;;;;;;;6.38;5.68;;;;;;;;;;5091576;28;20040;-27
2022/06/03 02:32:41;;;;;;;7.15;5.68;;;;;;;;;;5091502;28;20036;-28
2022/06/03 02:35:23;;;;;;;7.85;5.90;;;;;;;;;;5091339;28;20052;-29
2022/06/03 02:37:49;;;;;;;6.80;5.90;;;;;;;;;;5091596;28;20070;-27
2022/06/03 02:40:19;;;;;;;6.60;5.80;;;;;;;;;;5091255;28;20036;-28
2022/06/03 02:42:57;;;;;;;7.70;6.40;;;;;;;;;;5091079;28;20047;-27
2022/06/03 02:45:41;;;;;;;8.27;6.93;;;;;;;;;;5091488;28;20039;-27
2022/06/03 02:48:37;;;;;;;10.05;6.80;;;;;;;;;;5091546;28;20100;-27
2022/06/03 02:51:08;;;;;;;8.05;6.25;;;;;;;;;;5053509;28;20057;-28
2022/06/03 02:53:53;;;;;;;9.20;6.70;;;;;;;;;;5091581;28;20186;-27
2022/06/03 02:56:38;;;;;;;7.65;6.25;;;;;;;;;;5074823;28;20079;-29
2022/06/03 02:59:13;;;;;;;8.20;6.47;;;;;;;;;;5070830;28;20094;-28
2022/06/03 03:01:44;;;;;;;7.55;6.75;;;;;;;;;;5070730;28;20064;-27
2022/06/03 03:04:23;;;;;;;7.60;6.30;;;;;;;;;;5070780;28;20040;-28
2022/06/03 03:06:55;;;;;;;8.68;6.80;;;;;;;;;;5070970;28;20391;-27
2022/06/03 03:09:29;;;;;;;9.13;7.05;;;;;;;;;;5070999;28;20053;-27
2022/06/03 03:12:01;;;;;;;10.90;6.72;;;;;;;;;;5070887;28;20051;-28
2022/06/03 03:14:44;;;;;;;6.88;6.18;;;;;;;;;;5070727;28;20049;-28
2022/06/03 03:17:10;;;;;;;10.80;7.30;;;;;;;;;;5070722;28;20072;-28
2022/06/03 03:19:36;;;;;;;7.82;6.93;;;;;;;;;;5070733;28;20041;-28
2022/06/03 03:22:17;;;;;;;10.43;7.15;;;;;;;;;;5070565;28;20040;-28
2022/06/03 03:25:02;;;;;;;10.32;7.00;;;;;;;;;;5070987;28;20246;-27
2022/06/03 03:27:31;;;;;;;10.63;8.13;;;;;;;;;;5070933;28;20109;-27
2022/06/03 03:30:16;;;;;;;9.25;7.57;;;;;;;;;;5070527;28;20123;-28
2022/06/03 03:33:00;;;;;;;13.70;7.82;;;;;;;;;;5070287;28;20032;-27
2022/06/03 03:35:26;;;;;;;8.38;7.32;;;;;;;;;;5070843;28;20048;-27
2022/06/03 03:38:11;;;;;;;10.73;7.38;;;;;;;;;;5070681;28;20041;-29
2022/06/03 03:40:40;;;;;;;7.05;6.30;;;;;;;;;;5063994;28;20107;-33
2022/06/03 03:43:25;;;;;;;8.23;6.72;;;;;;;;;;5062029;28;20071;-30
2022/06/03 03:46:10;;;;;;;11.15;8.35;;;;;;;;;;5061707;28;20029;-30
2022/06/03 03:48:39;;;;;;;8.35;7.07;;;;;;;;;;5064999;28;20479;-31
2022/06/03 03:51:23;;;;;;;10.73;7.35;;;;;;;;;;5063020;28;20040;-31
2022/06/03 03:54:08;;;;;;;9.77;8.07;;;;;;;;;;5063136;28;20033;-32
2022/06/03 03:57:00;;;;;;;12.02;8.25;;;;;;;;;;5062106;28;20044;-31
2022/06/03 03:59:29;;;;;;;10.20;7.93;;;;;;;;;;5070431;28;20032;-32
2022/06/03 04:02:10;;;;;;;9.57;7.22;;;;;;;;;;5066029;28;20039;-31
2022/06/03 04:04:53;;;;;;;10.85;8.18;;;;;;;;;;5062755;28;20101;-32
2022/06/03 04:07:25;;;;;;;10.35;8.35;;;;;;;;;;5059952;28;20044;-31
2022/06/03 04:10:10;;;;;;;14.82;8.20;;;;;;;;;;5066831;28;20028;-30
2022/06/03 04:12:38;;;;;;;14.73;8.63;;;;;;;;;;5066587;28;20031;-32
2022/06/03 04:15:23;;;;;;;11.68;8.98;;;;;;;;;;5066968;28;20040;-31
2022/06/03 04:17:49;;;;;;;11.45;8.73;;;;;;;;;;5057751;28;20037;-31
2022/06/03 04:20:45;;;;;;;9.30;8.07;;;;;;;;;;5064229;28;20044;-31
2022/06/03 04:23:29;;;;;;;9.95;8.73;;;;;;;;;;5061245;28;20045;-29
2022/06/03 04:25:58;;;;;;;11.55;8.68;;;;;;;;;;5057722;28;20048;-30
2022/06/03 04:28:27;;;;;;;10.55;8.10;;;;;;;;;;5055865;28;20044;-35
2022/06/03 04:31:12;;;;;;;9.68;8.68;;;;;;;;;;5059808;28;20374;-32
2022/06/03 04:33:47;;;;;;;14.40;9.45;;;;;;;;;;5057338;28;20041;-33
2022/06/03 04:36:36;;;;;;;11.30;8.43;;;;;;;;;;5062175;28;20044;-30
2022/06/03 04:39:14;;;;;;;9.40;7.53;;;;;;;;;;5057796;28;20040;-32
2022/06/03 04:41:40;;;;;;;11.00;8.57;;;;;;;;;;5063553;28;20044;-30
2022/06/03 04:44:20;;;;;;;10.57;8.23;;;;;;;;;;5062189;28;20100;-30
2022/06/03 04:46:52;;;;;;;14.20;8.73;;;;;;;;;;5056979;28;20045;-32
2022/06/03 04:49:24;;;;;;;11.60;9.68;;;;;;;;;;5062901;28;20507;-29
2022/06/03 04:52:09;;;;;;;10.48;8.95;;;;;;;;;;5056191;28;20040;-33
2022/06/03 04:54:42;;;;;;;15.20;9.63;;;;;;;;;;5054747;28;20036;-32
2022/06/03 04:57:11;;;;;;;13.98;9.95;;;;;;;;;;5057170;28;20076;-30
2022/06/03 04:59:37;;;;;;;11.23;9.93;;;;;;;;;;5065930;28;20055;-31
2022/06/03 05:02:10;;;;;;;13.77;9.18;;;;;;;;;;5061879;28;20041;-31
2022/06/03 05:04:42;;;;;;;13.27;9.90;;;;;;;;;;5058010;28;20089;-31
2022/06/03 05:07:08;;;;;;;12.45;9.90;;;;;;;;;;5066731;28;20045;-31
2022/06/03 05:09:54;;;;;;;11.75;9.38;;;;;;;;;;5059233;28;20041;-33
2022/06/03 05:12:20;;;;;;;11.15;9.15;;;;;;;;;;5063508;28;20044;-29
2022/06/03 05:15:09;;;;;;;15.13;10.80;;;;;;;;;;5056566;28;20154;-33
2022/06/03 05:17:59;;;;;;;13.18;9.98;;;;;;;;;;5062777;28;20033;-31
2022/06/03 05:20:44;;;;;;;12.65;10.30;;;;;;;;;;5065395;28;20498;-33
2022/06/03 05:23:14;;;;;;;11.85;10.52;;;;;;;;;;5059192;28;20037;-32
2022/06/03 05:25:59;;;;;;;13.20;10.18;;;;;;;;;;5063353;28;20032;-31
2022/06/03 05:28:36;;;;;;;14.60;9.90;;;;;;;;;;5061761;28;20036;-32
2022/06/03 05:31:02;;;;;;;11.57;9.90;;;;;;;;;;5063500;28;20039;-32
2022/06/03 05:33:40;;;;;;;14.35;10.68;;;;;;;;;;5063457;28;20040;-32
2022/06/03 05:36:19;;;;;;;12.27;9.38;;;;;;;;;;5063677;28;20036;-35
2022/06/03 05:38:46;;;;;;;11.93;9.55;;;;;;;;;;5058977;28;20041;-32
2022/06/03 05:42:23;;;;;;;11.77;9.57;;;;;;;;;;5066926;28;20109;-30
2022/06/03 05:44:20;;;;;;;10.60;8.60;;;;;;;;;;5055548;28;20049;-33
2022/06/03 05:46:53;;;;;;;10.98;8.75;;;;;;;;;;5063208;28;20086;-31
2022/06/03 05:49:30;;;;;;;13.45;9.25;;;;;;;;;;5062076;28;20119;-33
2022/06/03 05:52:14;;;;;;;11.93;8.73;;;;;;;;;;5061338;28;20041;-30
2022/06/03 05:54:43;;;;;;;10.45;9.05;;;;;;;;;;5068053;28;20516;-30
2022/06/03 05:57:20;;;;;;;11.05;8.95;;;;;;;;;;5070197;28;20528;-31
2022/06/03 05:59:53;;;;;;;12.02;9.50;;;;;;;;;;5068989;28;20094;-33
2022/06/03 06:02:23;;;;;;;12.77;8.48;;;;;;;;;;5084411;28;20044;-32
2022/06/03 06:04:49;;;;;;;12.07;8.63;;;;;;;;;;5062762;28;20044;-33
2022/06/03 06:07:38;;;;;;;14.27;9.38;;;;;;;;;;5059162;28;20045;-34
2022/06/03 06:10:11;;;;;;;10.73;9.32;;;;;;;;;;5060435;28;20309;-31
2022/06/03 06:12:48;;;;;;;10.75;9.23;;;;;;;;;;5060785;28;20502;-30
2022/06/03 06:15:14;;;;;;;10.75;8.55;;;;;;;;;;5060054;28;20052;-33
2022/06/03 06:17:57;;;;;;;9.45;8.30;;;;;;;;;;5057515;28;20261;-31
2022/06/03 06:20:26;;;;;;;13.43;8.53;;;;;;;;;;5055085;28;20039;-33
2022/06/03 06:22:58;;;;;;;10.38;7.93;;;;;;;;;;5063834;28;20115;-33
2022/06/03 06:25:44;;;;;;;10.30;7.93;;;;;;;;;;5073211;28;20039;-34
2022/06/03 06:28:16;;;;;;;12.43;8.52;;;;;;;;;;5059091;28;20072;-32
2022/06/03 06:30:42;;;;;;;9.57;7.95;;;;;;;;;;5073991;28;20466;-33
2022/06/03 06:33:23;;;;;;;8.20;6.68;;;;;;;;;;5066414;28;20045;-32
2022/06/03 06:35:50;;;;;;;9.00;7.90;;;;;;;;;;5067459;28;20043;-31
2022/06/03 06:38:16;;;;;;;8.40;6.80;;;;;;;;;;5073619;28;20387;-36
2022/06/03 06:40:42;;;;;;;9.75;7.07;;;;;;;;;;5074530;28;20032;-32
2022/06/03 06:43:11;;;;;;;8.68;6.55;;;;;;;;;;5074050;28;20048;-31
2022/06/03 06:45:44;;;;;;;8.02;6.75;;;;;;;;;;5067964;28;20044;-33
2022/06/03 06:48:10;;;;;;;8.88;6.60;;;;;;;;;;5065530;28;20041;-33
2022/06/03 06:50:44;;;;;;;11.75;6.85;;;;;;;;;;5078304;28;20082;-34
2022/06/03 06:53:13;;;;;;;7.43;6.63;;;;;;;;;;5059982;28;20037;-32
2022/06/03 06:55:41;;;;;;;10.80;6.80;;;;;;;;;;5073560;28;20058;-33
2022/06/03 06:58:33;;;;;;;7.57;6.32;;;;;;;;;;5075567;28;20118;-33
2022/06/03 07:01:00;;;;;;;8.20;6.53;;;;;;;;;;5081547;28;20043;-32
2022/06/03 07:03:42;;;;;;;7.50;6.00;;;;;;;;;;5070608;28;21428;-32
2022/06/03 07:06:18;;;;;;;6.88;6.13;;;;;;;;;;5074708;28;20094;-31
2022/06/03 07:09:10;;;;;;;9.23;5.88;;;;;;;;;;5060667;28;20029;-33
2022/06/03 07:11:55;;;;;;;8.55;5.75;;;;;;;;;;5048531;28;20051;-33
2022/06/03 07:14:32;;;;;;;6.90;5.80;;;;;;;;;;5066473;28;20037;-32
2022/06/03 07:20:07;;;;;;;8.15;6.00;;;;;;;;;;5067667;28;20090;-33
2022/06/03 07:22:33;;;;;;;10.85;6.38;;;;;;;;;;5064207;28;20379;-34
2022/06/03 07:25:15;;;;;;;8.38;5.60;;;;;;;;;;5072575;28;20047;-33
2022/06/03 07:27:44;;;;;;;6.82;5.55;;;;;;;;;;5069922;28;20040;-34
2022/06/03 07:30:13;;;;;;;6.90;5.35;;;;;;;;;;5073419;28;20029;-34
2022/06/03 07:32:43;;;;;;;7.90;5.57;;;;;;;;;;5068434;28;20033;-33
2022/06/03 07:35:28;;;;;;;5.50;5.00;;;;;;;;;;5069522;28;20064;-32
2022/06/03 07:38:05;;;;;;;7.57;5.22;;;;;;;;;;5076208;28;20036;-34
2022/06/03 07:40:40;;;;;;;7.88;4.93;;;;;;;;;;5078703;28;20059;-33
2022/06/03 07:43:18;;;;;;;6.78;4.70;;;;;;;;;;5084021;28;20040;-38
2022/06/03 07:45:44;;;;;;;6.85;5.20;;;;;;;;;;5057531;28;20032;-33
2022/06/03 07:48:16;;;;;;;5.95;4.82;;;;;;;;;;5060261;28;20029;-32
2022/06/03 07:50:50;;;;;;;6.32;5.20;;;;;;;;;;5067980;28;20039;-37
2022/06/03 07:53:19;;;;;;;6.43;4.65;;;;;;;;;;5065209;28;20098;-33
2022/06/03 07:55:51;;;;;;;6.40;5.28;;;;;;;;;;5067907;28;20094;-33
2022/06/03 07:58:18;;;;;;;5.95;4.80;;;;;;;;;;5068895;28;20043;-34
2022/06/03 08:00:45;;;;;;;6.25;5.15;;;;;;;;;;5062932;28;20099;-35
2022/06/03 08:03:19;;;;;;;7.35;5.05;;;;;;;;;;5061426;28;20079;-36
2022/06/03 08:05:46;;;;;;;7.07;5.13;;;;;;;;;;5065681;28;20044;-33
2022/06/03 08:11:05;;;;;;;6.07;4.57;;;;;;;;;;5066899;28;20044;-33
2022/06/03 08:13:41;;;;;;;5.88;4.18;;;;;;;;;;5063716;28;20036;-32
2022/06/03 08:16:26;;;;;;;6.40;3.92;;;;;;;;;;5063281;28;20091;-34
2022/06/03 08:18:54;;;;;;;4.95;3.88;;;;;;;;;;5073581;28;20028;-32
2022/06/03 08:21:24;;;;;;;6.80;4.10;;;;;;;;;;5073861;28;20095;-31
2022/06/03 08:23:52;;;;;;;6.50;5.05;;;;;;;;;;5072482;28;20086;-33
2022/06/03 08:26:21;;;;;;;5.95;4.30;;;;;;;;;;5070685;28;20573;-34
2022/06/03 08:28:49;;;;;;;4.97;4.40;;;;;;;;;;5057907;28;20071;-35
2022/06/03 08:31:15;;;;;;;4.28;3.80;;;;;;;;;;5067605;28;20132;-34
2022/06/03 08:33:47;;;;;;;4.40;3.65;;;;;;;;;;5068112;28;20055;-33
2022/06/03 08:36:19;;;;;;;4.80;4.03;;;;;;;;;;5066904;28;20811;-31
2022/06/03 08:38:53;;;;;;;5.03;3.65;;;;;;;;;;5056256;28;20086;-31
2022/06/03 08:41:23;;;;;;;4.93;3.75;;;;;;;;;;5064024;28;20040;-32
2022/06/03 08:44:14;;;;;;;4.03;3.28;;;;;;;;;;5073616;28;20123;-32
2022/06/03 08:46:53;;;;;;;3.83;3.50;;;;;;;;;;5074021;28;20379;-32
2022/06/03 08:49:23;;;;;;;4.40;3.60;;;;;;;;;;5053620;28;20045;-32
2022/06/03 08:52:10;;;;;;;5.25;3.55;;;;;;;;;;5050642;28;20060;-33
2022/06/03 08:54:38;;;;;;;4.43;4.03;;;;;;;;;;5051233;28;20380;-31
2022/06/03 08:57:18;;;;;;;5.47;3.85;;;;;;;;;;5052183;28;20037;-31
2022/06/03 08:59:57;;;;;;;3.90;3.60;;;;;;;;;;5053098;28;20037;-31
2022/06/03 09:02:41;;;;;;;4.00;3.60;;;;;;;;;;5053346;28;20449;-31
2022/06/03 09:05:12;;;;;;;4.88;3.20;;;;;;;;;;5052303;28;20049;-31
2022/06/03 09:07:40;;;;;;;3.72;3.42;;;;;;;;;;5051570;28;20041;-32
2022/06/03 09:10:18;;;;;;;5.60;3.70;;;;;;;;;;5053058;28;20029;-31
2022/06/03 09:12:52;;;;;;;6.65;3.63;;;;;;;;;;5052976;28;20045;-31
2022/06/03 09:15:22;;;;;;;4.68;3.50;;;;;;;;;;5065607;28;20040;-30
2022/06/03 09:17:53;;;;;;;4.72;3.55;;;;;;;;;;5072968;28;20511;-31
2022/06/03 09:20:31;;;;;;;3.50;3.20;;;;;;;;;;5058678;28;20071;-31
2022/06/03 09:23:11;;;;;;;3.83;3.28;;;;;;;;;;5057845;28;20066;-32
2022/06/03 09:25:43;;;;;;;4.68;3.42;;;;;;;;;;5071518;28;20093;-30
2022/06/03 09:28:13;;;;;;;5.10;3.55;;;;;;;;;;5071745;28;20051;-31
2022/06/03 09:30:40;;;;;;;4.10;3.40;;;;;;;;;;5062158;28;20163;-30
2022/06/03 09:33:11;;;;;;;4.93;3.40;;;;;;;;;;5052674;28;20048;-30
2022/06/03 09:35:38;;;;;;;5.13;3.33;;;;;;;;;;5051413;28;20083;-31
2022/06/03 09:38:05;;;;;;;6.50;3.95;;;;;;;;;;5050451;28;20073;-31
2022/06/03 09:40:38;;;;;;;4.60;2.97;;;;;;;;;;5050272;28;20037;-31
2022/06/03 09:43:07;;;;;;;3.47;3.17;;;;;;;;;;5061489;28;20045;-33
2022/06/03 09:45:34;;;;;;;3.78;3.38;;;;;;;;;;5055586;28;20036;-36
2022/06/03 09:48:04;;;;;;;5.07;3.20;;;;;;;;;;5065026;28;20593;-34
2022/06/03 09:50:31;;;;;;;4.53;3.03;;;;;;;;;;5077249;28;20036;-34
2022/06/03 09:53:01;;;;;;;3.08;2.88;;;;;;;;;;5060350;28;20410;-35
2022/06/03 09:55:36;;;;;;;4.28;3.38;;;;;;;;;;5060921;28;20051;-32
2022/06/03 09:58:04;;;;;;;6.28;3.33;;;;;;;;;;5058315;28;20059;-31
2022/06/03 10:00:57;;;;;;;5.30;3.30;;;;;;;;;;5070489;28;20059;-33
2022/06/03 10:03:26;;;;;;;5.55;2.92;;;;;;;;;;5062723;28;20160;-34
2022/06/03 10:05:55;;;;;;;4.38;2.92;;;;;;;;;;5061157;28;20066;-35
2022/06/03 10:08:28;;;;;;;3.53;3.10;;;;;;;;;;5062767;28;20099;-33
2022/06/03 10:13:41;;;;;;;4.22;2.97;;;;;;;;;;5056062;28;20114;-38
2022/06/03 10:16:10;;;;;;;3.22;2.53;;;;;;;;;;5064293;28;20041;-32
2022/06/03 10:18:37;;;;;;;4.72;3.42;;;;;;;;;;5064961;28;20032;-34
2022/06/03 10:21:06;;;;;;;3.60;2.80;;;;;;;;;;5069050;28;20542;-35
2022/06/03 10:23:45;;;;;;;3.67;2.83;;;;;;;;;;5061173;28;20037;-34
2022/06/03 10:26:19;;;;;;;2.95;2.55;;;;;;;;;;5051874;28;20076;-33
2022/06/03 10:28:48;;;;;;;4.40;2.67;;;;;;;;;;5059994;28;20086;-33
2022/06/03 10:31:16;;;;;;;2.53;2.30;;;;;;;;;;5060296;28;20326;-35
2022/06/03 10:33:55;;;;;;;3.58;2.70;;;;;;;;;;5054112;28;20036;-33
2022/06/03 10:36:24;;;;;;;2.70;2.38;;;;;;;;;;5058182;28;20033;-34
2022/06/03 10:38:51;;;;;;;3.08;2.70;;;;;;;;;;5061733;28;20052;-35
2022/06/03 10:41:19;;;;;;;2.92;2.45;;;;;;;;;;5062110;28;20076;-38
2022/06/03 10:43:45;;;;;;;3.65;2.33;;;;;;;;;;5067622;28;20071;-33
2022/06/03 10:46:13;;;;;;;2.90;2.03;;;;;;;;;;5069298;28;20140;-34
2022/06/03 10:48:39;;;;;;;3.40;2.83;;;;;;;;;;5068445;28;20482;-35
2022/06/03 11:02:34;;;;;;;6.57;1.85;;;;;;;;;;5068742;28;20047;-33
2022/06/03 11:05:19;;;;;;;2.05;1.85;;;;;;;;;;5078432;28;20042;-33
2022/06/03 11:07:56;;;;;;;2.40;2.20;;;;;;;;;;5055065;28;20087;-34
2022/06/03 11:10:27;;;;;;;2.33;2.13;;;;;;;;;;5078659;28;20576;-35
2022/06/03 11:12:58;;;;;;;2.83;1.90;;;;;;;;;;5067776;28;20040;-36
2022/06/03 11:15:32;;;;;;;2.40;2.03;;;;;;;;;;5072988;28;20036;-34
2022/06/03 11:18:00;;;;;;;2.13;1.92;;;;;;;;;;5065502;28;20065;-35
2022/06/03 11:20:38;;;;;;;2.28;2.10;;;;;;;;;;5078170;28;20044;-33
2022/06/03 11:23:07;;;;;;;2.85;2.03;;;;;;;;;;5060659;28;20120;-34
2022/06/03 11:25:35;;;;;;;2.22;2.13;;;;;;;;;;5065435;28;20456;-34
2022/06/03 11:28:07;;;;;;;3.28;2.40;;;;;;;;;;5059169;28;20033;-35
2022/06/03 11:30:43;;;;;;;3.40;2.67;;;;;;;;;;5062982;28;20067;-33
2022/06/03 11:33:19;;;;;;;2.50;2.15;;;;;;;;;;5061790;28;20108;-34
2022/06/03 11:35:47;;;;;;;3.15;2.30;;;;;;;;;;5065412;28;20028;-34
2022/06/03 11:38:16;;;;;;;2.47;2.10;;;;;;;;;;5068875;28;20032;-34
2022/06/03 11:40:45;;;;;;;2.30;2.10;;;;;;;;;;5073544;28;20493;-34
2022/06/03 11:43:12;;;;;;;2.00;1.90;;;;;;;;;;5074650;28;20444;-34
2022/06/03 11:45:59;;;;;;;2.80;2.10;;;;;;;;;;5062951;28;20052;-36
2022/06/03 11:48:29;;;;;;;2.40;2.15;;;;;;;;;;5052329;28;20052;-33
2022/06/03 11:50:57;;;;;;;2.78;2.50;;;;;;;;;;5066843;28;20036;-34
2022/06/03 11:53:25;;;;;;;2.95;1.83;;;;;;;;;;5066845;28;20051;-34
2022/06/03 11:55:53;;;;;;;3.85;2.60;;;;;;;;;;5074516;28;20111;-34
2022/06/03 11:58:22;;;;;;;3.22;2.40;;;;;;;;;;5069346;28;20040;-34
2022/06/03 12:00:52;;;;;;;2.85;2.13;;;;;;;;;;5069312;28;20048;-39
2022/06/03 12:03:37;;;;;;;2.45;2.22;;;;;;;;;;5073832;28;20044;-35
2022/06/03 12:06:07;;;;;;;3.22;2.40;;;;;;;;;;5067698;28;20040;-37
2022/06/03 12:08:39;;;;;;;4.03;2.80;;;;;;;;;;5077557;28;20040;-36
2022/06/03 12:13:14;;;;;;;2.88;2.35;;;;;;;;;;5071491;28;20040;-35
2022/06/03 12:14:19;;;;;;;2.40;2.20;;;;;;;;;;5073646;28;20552;-37
2022/06/03 12:16:52;;;;;;;5.78;2.55;;;;;;;;;;5071639;28;20509;-35
2022/06/03 12:19:34;;;;;;;3.50;2.70;;;;;;;;;;5071231;28;20048;-33
2022/06/03 12:22:15;;;;;;;3.65;2.78;;;;;;;;;;5063486;28;20037;-33
2022/06/03 12:24:43;;;;;;;2.35;1.95;;;;;;;;;;5066691;28;20179;-34
2022/06/03 12:27:33;;;;;;;4.03;2.15;;;;;;;;;;5068843;28;20051;-32
2022/06/03 12:30:02;;;;;;;3.78;2.60;;;;;;;;;;5062562;28;20079;-33
2022/06/03 12:32:29;;;;;;;3.45;2.30;;;;;;;;;;5073481;28;20370;-37
2022/06/03 12:35:13;;;;;;;2.60;2.40;;;;;;;;;;5063696;28;20044;-34
2022/06/03 12:37:40;;;;;;;2.35;2.15;;;;;;;;;;5065169;28;20162;-34
2022/06/03 12:40:25;;;;;;;2.70;2.50;;;;;;;;;;5077662;28;20077;-34
2022/06/03 12:42:52;;;;;;;2.60;2.20;;;;;;;;;;5067138;28;20517;-33
2022/06/03 12:45:27;;;;;;;2.47;2.28;;;;;;;;;;5077323;28;20058;-33
2022/06/03 12:47:55;;;;;;;3.72;1.98;;;;;;;;;;5058704;28;20546;-32
2022/06/03 12:50:23;;;;;;;2.25;2.03;;;;;;;;;;5067337;28;20166;-32
2022/06/03 12:52:50;;;;;;;2.83;2.47;;;;;;;;;;5061047;28;20037;-33
2022/06/03 12:55:27;;;;;;;2.33;2.17;;;;;;;;;;5068294;28;20119;-33
2022/06/03 12:57:58;;;;;;;3.05;2.20;;;;;;;;;;5068762;28;20048;-35
2022/06/03 13:00:32;;;;;;;6.47;2.15;;;;;;;;;;5064924;28;20116;-34
2022/06/03 13:03:33;;;;;;;3.22;2.35;;;;;;;;;;5068392;28;20045;-35
2022/06/03 13:06:03;;;;;;;6.28;2.30;;;;;;;;;;5026976;28;20416;-33
2022/06/03 13:08:29;;;;;;;2.65;2.45;;;;;;;;;;5074204;28;20052;-38
2022/06/03 13:10:56;;;;;;;2.72;2.50;;;;;;;;;;5068205;28;20047;-35
2022/06/03 13:13:34;;;;;;;3.28;2.20;;;;;;;;;;5060355;28;20117;-33
2022/06/03 13:16:19;;;;;;;2.53;2.33;;;;;;;;;;5060108;28;20422;-34
2022/06/03 13:18:49;;;;;;;2.83;2.00;;;;;;;;;;5062131;28;20096;-33
2022/06/03 13:21:21;;;;;;;2.90;2.20;;;;;;;;;;5071805;28;20396;-34
2022/06/03 13:23:51;;;;;;;3.27;2.30;;;;;;;;;;5068409;28;20028;-34
2022/06/03 13:26:20;;;;;;;2.70;2.20;;;;;;;;;;5067523;28;21011;-38
2022/06/03 13:40:24;;;;;;;2.40;2.20;;;31.50;39.40;;;;;;5129683;27;20390;-33
2022/06/03 13:42:59;;;;;;;2.30;2.20;;;32.30;36.30;;;;;;5129070;28;20069;-31
2022/06/03 13:45:28;;;;;;;2.45;2.03;;;31.60;35.40;;;;;;5110924;28;20069;-30
2022/06/03 13:47:58;;;;;;;5.85;2.33;;;31.00;37.10;;;;;;5122793;28;20422;-31
2022/06/03 13:50:27;;;;;;;2.72;1.88;;;31.20;38.50;;;;;;5109025;28;20046;-32
2022/06/03 13:53:05;;;;;;;2.83;1.98;;;31.20;39.60;;;;;;5108784;28;20085;-31
2022/06/03 13:55:37;;;;;;;2.67;1.98;;;31.20;39.20;;;;;;5094953;28;20075;-31
2022/06/03 13:58:09;;;;;;;2.30;2.10;;;31.10;38.70;;;;;;5109023;28;20044;-30
2022/06/03 14:01:19;;;;;;;2.60;1.77;;;31.10;38.70;;;;;;5108713;28;20138;-31
2022/06/03 14:04:27;;;;;;;2.83;2.00;;;31.00;38.70;;;;;;5065893;28;20052;-33
2022/06/03 14:06:56;;;;;;;2.65;2.15;;;31.10;38.70;;;;;;5102641;28;20036;-30
2022/06/03 14:09:29;;;;;;;3.38;2.50;;;31.10;37.90;;;;;;5090146;28;20500;-31
2022/06/03 14:12:09;;;;;;;;;;;31.00;37.20;;;;;;5108777;28;20183;-30
2022/06/03 14:14:49;;;;;;;4.40;2.10;;;31.00;39.00;;;;;;5108683;28;19938;-32
2022/06/03 14:17:32;;;;;;;2.42;1.70;;;31.40;37.60;;;;;;5090417;28;20482;-31
2022/06/03 14:20:06;;;;;;;2.65;1.95;;;31.40;38.10;;;;;;5090269;28;20435;-31
2022/06/03 14:22:41;;;;;;;2.67;2.08;;;31.30;37.10;;;;;;5108052;28;20542;-32
2022/06/03 14:25:27;;;;;;;1.70;1.60;;;31.00;37.30;;;;;;5108224;28;20154;-30
2022/06/03 14:28:20;;;;;;;2.33;1.83;;;31.00;39.00;;;;;;5089460;28;20422;-30
2022/06/03 14:31:20;;;;;;;3.23;1.83;;;30.80;37.40;;;;;;5088420;28;20028;-31
2022/06/03 14:33:53;;;;;;;2.30;2.08;;;31.20;41.20;;;;;;5081729;28;20036;-31
2022/06/03 14:36:21;;;;;;;2.70;2.10;;;30.90;38.20;;;;;;5052901;28;20090;-30
2022/06/03 14:39:10;;;;;;;2.33;1.90;;;30.60;37.40;;;;;;5099341;28;20432;-30
2022/06/03 14:41:40;;;;;;;3.10;2.17;;;30.50;38.20;;;;;;5076112;28;20044;-33
2022/06/03 14:44:11;;;;;;;7.07;1.90;;;30.70;38.50;;;;;;5094429;28;20049;-31
2022/06/03 14:46:52;;;;;;;2.23;2.00;;;31.30;39.50;;;;;;5109875;28;20039;-30
2022/06/03 14:49:26;;;;;;;2.50;1.55;;;31.40;39.10;;;;;;5079023;28;20063;-29
2022/06/03 14:52:09;;;;;;;1.65;1.50;;;31.60;38.80;;;;;;5089266;28;20032;-30
2022/06/03 14:54:48;;;;;;;4.85;1.50;;;31.90;37.10;;;;;;5093574;28;20062;-31
2022/06/03 14:57:41;;;;;;;1.77;1.55;;;31.80;37.60;;;;;;5093661;28;20490;-31
2022/06/03 15:00:08;;;;;;;2.10;1.90;;;31.80;37.20;;;;;;5093693;28;20036;-32
2022/06/03 15:02:58;;;;;;;4.18;1.30;;;31.80;37.10;;;;;;5075642;28;20497;-31
2022/06/03 15:05:36;;;;;;;2.70;1.48;;;32.00;37.40;;;;;;5093525;28;20051;-32
2022/06/03 15:08:14;;;;;;;2.10;1.67;;;32.20;36.90;;;;;;5093514;28;20549;-31
2022/06/03 15:10:49;;;;;;;2.03;1.70;;;32.20;36.90;;;;;;5093580;28;20036;-32
2022/06/03 15:13:26;;;;;;;2.17;1.80;;;32.50;36.70;;;;;;5093779;28;20100;-32
2022/06/03 15:15:53;;;;;;;2.72;1.60;;;32.30;34.60;;;;;;5093590;28;20032;-31
2022/06/03 15:18:25;;;;;;;2.75;1.60;;;32.20;36.00;;;;;;5075304;28;20559;-31
2022/06/03 15:21:21;;;;;;;2.00;1.55;;;32.30;37.10;;;;;;5075374;28;20429;-32
2022/06/03 15:23:51;;;;;;;2.03;1.23;;;32.70;36.50;;;;;;5075311;28;20402;-32
2022/06/03 15:26:20;;;;;;;1.60;1.48;;;32.90;36.70;;;;;;5093454;28;20047;-33
2022/06/03 15:28:54;;;;;;;2.17;1.50;;;32.90;36.30;;;;;;5093025;28;20379;-33
2022/06/03 15:31:26;;;;;;;1.83;1.70;;;33.00;34.70;;;;;;5092889;28;20432;-33
2022/06/03 15:34:00;;;;;;;1.50;1.40;;;32.90;35.00;;;;;;5092909;28;20554;-31
2022/06/03 15:36:29;;;;;;;1.40;1.30;;;33.10;35.40;;;;;;5092739;28;20043;-31
2022/06/03 15:39:11;;;;;;;1.70;1.60;;;33.20;34.40;;;;;;5092334;28;20303;-31
2022/06/03 15:41:41;;;;;;;3.97;1.80;;;33.00;34.20;;;;;;5074399;28;20085;-32